SWA1212 KSEA-KPDX
Flight info
| Callsign | SWA1212 |
|---|---|
| Flight time | 0h 40m |
| Altitude | 16000 |
| Route | OZWLD/N0370F150 BUWZO KRATR3 |
| Aircraft | B738/M-SDE2E3FGHIRWXY/LB1 |
Departure
| Time | 2026-05-05 04:35 |
|---|---|
| Airport | Seattle–Tacoma International Airport (KSEA) |
Arrival
| Time | 2026-05-05 05:15 |
|---|---|
| Airport | Portland International Airport (KPDX) |
| Time | Latitude | Longitude | Altitude | Speed | Heading |
|---|---|---|---|---|---|
| 2026-05-05 04:10 | 47.44185 | -122.30472 | 393 ft | 0 kts | 91° |
| 2026-05-05 04:24 | 47.44185 | -122.30479 | 393 ft | 4 kts | 89° |
| 2026-05-05 04:25 | 47.44173 | -122.30542 | 393 ft | 4 kts | 14° |
| 2026-05-05 04:25 | 47.44147 | -122.30544 | 393 ft | 3 kts | 359° |
| 2026-05-05 04:25 | 47.44139 | -122.30544 | 393 ft | 0 kts | 0° |
| 2026-05-05 04:30 | 47.44258 | -122.30546 | 393 ft | 35 kts | 360° |
| 2026-05-05 04:30 | 47.44428 | -122.30569 | 393 ft | 13 kts | 336° |
| 2026-05-05 04:30 | 47.44508 | -122.30629 | 393 ft | 13 kts | 349° |
| 2026-05-05 04:30 | 47.44597 | -122.30633 | 393 ft | 13 kts | 0° |
| 2026-05-05 04:31 | 47.44726 | -122.30631 | 393 ft | 25 kts | 360° |
| 2026-05-05 04:31 | 47.44934 | -122.30630 | 393 ft | 35 kts | 0° |
| 2026-05-05 04:31 | 47.45197 | -122.30627 | 393 ft | 40 kts | 0° |
| 2026-05-05 04:31 | 47.45475 | -122.30625 | 393 ft | 40 kts | 0° |
| 2026-05-05 04:32 | 47.45744 | -122.30622 | 393 ft | 38 kts | 0° |
| 2026-05-05 04:32 | 47.45995 | -122.30620 | 393 ft | 36 kts | 0° |
| 2026-05-05 04:32 | 47.46245 | -122.30617 | 393 ft | 36 kts | 0° |
| 2026-05-05 04:32 | 47.46342 | -122.30628 | 393 ft | 0 kts | 340° |
| 2026-05-05 04:33 | 47.46347 | -122.30631 | 393 ft | 2 kts | 337° |
| 2026-05-05 04:33 | 47.46363 | -122.30650 | 393 ft | 4 kts | 319° |
| 2026-05-05 04:33 | 47.46383 | -122.30690 | 393 ft | 6 kts | 288° |
| 2026-05-05 04:33 | 47.46362 | -122.30770 | 393 ft | 1 kts | 196° |
| 2026-05-05 04:34 | 47.46345 | -122.30774 | 393 ft | 3 kts | 187° |
| 2026-05-05 04:34 | 47.46098 | -122.30784 | 393 ft | 76 kts | 178° |
| 2026-05-05 04:34 | 47.45303 | -122.30790 | 393 ft | 149 kts | 181° |
| 2026-05-05 04:34 | 47.44145 | -122.30813 | 872 ft | 174 kts | 176° |
| 2026-05-05 04:35 | 47.42918 | -122.30684 | 1703 ft | 173 kts | 183° |
| 2026-05-05 04:35 | 47.41767 | -122.30744 | 2846 ft | 166 kts | 182° |
| 2026-05-05 04:35 | 47.40508 | -122.30797 | 3174 ft | 209 kts | 181° |
| 2026-05-05 04:35 | 47.38855 | -122.30868 | 3126 ft | 262 kts | 181° |
| 2026-05-05 04:36 | 47.36885 | -122.30951 | 3322 ft | 305 kts | 181° |
| 2026-05-05 04:36 | 47.34627 | -122.31320 | 3326 ft | 350 kts | 197° |
| 2026-05-05 04:36 | 47.32408 | -122.33184 | 3352 ft | 390 kts | 223° |
| 2026-05-05 04:36 | 47.30690 | -122.36188 | 4124 ft | 359 kts | 233° |
| 2026-05-05 04:37 | 47.29513 | -122.39259 | 4373 ft | 329 kts | 258° |
| 2026-05-05 04:37 | 47.29104 | -122.42451 | 4491 ft | 309 kts | 268° |
| 2026-05-05 04:37 | 47.28964 | -122.45635 | 3970 ft | 315 kts | 269° |
| 2026-05-05 04:37 | 47.28910 | -122.48899 | 3370 ft | 322 kts | 269° |
| 2026-05-05 04:38 | 47.28875 | -122.52218 | 2783 ft | 326 kts | 269° |
| 2026-05-05 04:38 | 47.29151 | -122.55394 | 2876 ft | 305 kts | 282° |
| 2026-05-05 04:38 | 47.29619 | -122.58305 | 3173 ft | 281 kts | 290° |
| 2026-05-05 04:38 | 47.30712 | -122.60528 | 3332 ft | 263 kts | 326° |
| 2026-05-05 04:39 | 47.32442 | -122.61464 | 3165 ft | 274 kts | 356° |
| 2026-05-05 04:39 | 47.34296 | -122.61034 | 3153 ft | 266 kts | 25° |
| 2026-05-05 04:39 | 47.35683 | -122.59486 | 3731 ft | 246 kts | 51° |
| 2026-05-05 04:39 | 47.36463 | -122.57204 | 4359 ft | 256 kts | 75° |
| 2026-05-05 04:40 | 47.36503 | -122.54545 | 5001 ft | 268 kts | 100° |
| 2026-05-05 04:40 | 47.35682 | -122.52016 | 5628 ft | 283 kts | 128° |
| 2026-05-05 04:40 | 47.34147 | -122.50171 | 6260 ft | 288 kts | 152° |
| 2026-05-05 04:40 | 47.32292 | -122.49038 | 6871 ft | 289 kts | 160° |
| 2026-05-05 04:41 | 47.30370 | -122.48121 | 7472 ft | 291 kts | 162° |
| 2026-05-05 04:41 | 47.28423 | -122.47246 | 8079 ft | 293 kts | 163° |
| 2026-05-05 04:41 | 47.26462 | -122.46397 | 8714 ft | 295 kts | 162° |
| 2026-05-05 04:41 | 47.24501 | -122.45525 | 9497 ft | 292 kts | 161° |
| 2026-05-05 04:42 | 47.22572 | -122.44632 | 10289 ft | 288 kts | 161° |
| 2026-05-05 04:42 | 47.20683 | -122.43730 | 11045 ft | 282 kts | 160° |
| 2026-05-05 04:42 | 47.18845 | -122.42834 | 11761 ft | 280 kts | 160° |
| 2026-05-05 04:42 | 47.16936 | -122.41889 | 11956 ft | 301 kts | 160° |
| 2026-05-05 04:43 | 47.14893 | -122.40869 | 12293 ft | 316 kts | 160° |
| 2026-05-05 04:43 | 47.12815 | -122.39829 | 12865 ft | 322 kts | 160° |
| 2026-05-05 04:43 | 47.10685 | -122.38762 | 13569 ft | 325 kts | 160° |
| 2026-05-05 04:43 | 47.08527 | -122.37679 | 14175 ft | 329 kts | 160° |
| 2026-05-05 04:44 | 47.06346 | -122.36585 | 14750 ft | 333 kts | 160° |
| 2026-05-05 04:44 | 47.04140 | -122.35478 | 15339 ft | 337 kts | 160° |
| 2026-05-05 04:44 | 47.01913 | -122.34361 | 15887 ft | 340 kts | 159° |
| 2026-05-05 04:44 | 46.99660 | -122.33232 | 15938 ft | 343 kts | 159° |
| 2026-05-05 04:45 | 46.97404 | -122.32103 | 15959 ft | 342 kts | 159° |
| 2026-05-05 04:45 | 46.95153 | -122.30979 | 15961 ft | 342 kts | 160° |
| 2026-05-05 04:45 | 46.92816 | -122.30702 | 15954 ft | 341 kts | 194° |
| 2026-05-05 04:45 | 46.90672 | -122.32087 | 15934 ft | 337 kts | 221° |
| 2026-05-05 04:46 | 46.89221 | -122.34676 | 15955 ft | 328 kts | 250° |
| 2026-05-05 04:46 | 46.88628 | -122.37843 | 15966 ft | 322 kts | 265° |
| 2026-05-05 04:46 | 46.88369 | -122.41102 | 15942 ft | 323 kts | 269° |
| 2026-05-05 04:46 | 46.88167 | -122.44384 | 15933 ft | 326 kts | 267° |
| 2026-05-05 04:47 | 46.87539 | -122.47587 | 15916 ft | 334 kts | 244° |
| 2026-05-05 04:47 | 46.86079 | -122.50255 | 15925 ft | 341 kts | 221° |
| 2026-05-05 04:47 | 46.84005 | -122.51946 | 15922 ft | 345 kts | 197° |
| 2026-05-05 04:47 | 46.81663 | -122.52400 | 15937 ft | 345 kts | 177° |
| 2026-05-05 04:48 | 46.79237 | -122.52079 | 15933 ft | 346 kts | 172° |
| 2026-05-05 04:48 | 46.76881 | -122.51626 | 15941 ft | 347 kts | 171° |
| 2026-05-05 04:48 | 46.74490 | -122.51141 | 15941 ft | 347 kts | 171° |
| 2026-05-05 04:48 | 46.72101 | -122.50649 | 15938 ft | 346 kts | 171° |
| 2026-05-05 04:49 | 46.69717 | -122.50154 | 15931 ft | 345 kts | 171° |
| 2026-05-05 04:49 | 46.67342 | -122.49661 | 15918 ft | 344 kts | 171° |
| 2026-05-05 04:49 | 46.64979 | -122.49172 | 15914 ft | 343 kts | 171° |
| 2026-05-05 04:49 | 46.62634 | -122.48615 | 15914 ft | 340 kts | 164° |
| 2026-05-05 04:50 | 46.60396 | -122.47579 | 15932 ft | 336 kts | 158° |
| 2026-05-05 04:50 | 46.58209 | -122.46387 | 15941 ft | 335 kts | 157° |
| 2026-05-05 04:50 | 46.56027 | -122.45202 | 15932 ft | 335 kts | 158° |
| 2026-05-05 04:50 | 46.53827 | -122.44059 | 15917 ft | 335 kts | 159° |
| 2026-05-05 04:51 | 46.51615 | -122.42959 | 15942 ft | 336 kts | 160° |
| 2026-05-05 04:51 | 46.49388 | -122.41888 | 15937 ft | 338 kts | 160° |
| 2026-05-05 04:51 | 46.47147 | -122.40833 | 15939 ft | 340 kts | 160° |
| 2026-05-05 04:51 | 46.44889 | -122.39782 | 15935 ft | 341 kts | 160° |
| 2026-05-05 04:52 | 46.42627 | -122.38736 | 15931 ft | 342 kts | 161° |
| 2026-05-05 04:52 | 46.40355 | -122.37689 | 15742 ft | 345 kts | 161° |
| 2026-05-05 04:52 | 46.38063 | -122.36634 | 15168 ft | 354 kts | 161° |
| 2026-05-05 04:52 | 46.35689 | -122.35542 | 14573 ft | 361 kts | 161° |
| 2026-05-05 04:53 | 46.33268 | -122.34429 | 13973 ft | 368 kts | 161° |
| 2026-05-05 04:53 | 46.30805 | -122.33299 | 13338 ft | 373 kts | 161° |
| 2026-05-05 04:53 | 46.28319 | -122.32160 | 12670 ft | 377 kts | 161° |
| 2026-05-05 04:53 | 46.25804 | -122.31004 | 12022 ft | 381 kts | 161° |
| 2026-05-05 04:54 | 46.23265 | -122.29847 | 11449 ft | 383 kts | 161° |
| 2026-05-05 04:54 | 46.20755 | -122.28748 | 11203 ft | 373 kts | 166° |
| 2026-05-05 04:54 | 46.18201 | -122.28492 | 10959 ft | 366 kts | 185° |
| 2026-05-05 04:54 | 46.15704 | -122.28993 | 10713 ft | 359 kts | 189° |
| 2026-05-05 04:55 | 46.13307 | -122.29843 | 10437 ft | 353 kts | 203° |
| 2026-05-05 04:55 | 46.11206 | -122.31693 | 9780 ft | 359 kts | 219° |
| 2026-05-05 04:55 | 46.09307 | -122.34103 | 8824 ft | 370 kts | 226° |
| 2026-05-05 04:55 | 46.07720 | -122.37072 | 7857 ft | 380 kts | 241° |
| 2026-05-05 04:56 | 46.06687 | -122.40588 | 6956 ft | 384 kts | 253° |
| 2026-05-05 04:56 | 46.05573 | -122.44002 | 6832 ft | 372 kts | 237° |
| 2026-05-05 04:56 | 46.03789 | -122.46708 | 6164 ft | 377 kts | 217° |
| 2026-05-05 04:56 | 46.01438 | -122.48389 | 5512 ft | 379 kts | 199° |
| 2026-05-05 04:57 | 45.98890 | -122.49184 | 5273 ft | 369 kts | 184° |
| 2026-05-05 04:57 | 45.96386 | -122.49105 | 5194 ft | 354 kts | 176° |
| 2026-05-05 04:57 | 45.93972 | -122.48802 | 4952 ft | 344 kts | 175° |
| 2026-05-05 04:57 | 45.91596 | -122.48461 | 4560 ft | 341 kts | 174° |
| 2026-05-05 04:58 | 45.89243 | -122.48121 | 4152 ft | 338 kts | 175° |
| 2026-05-05 04:58 | 45.86915 | -122.47788 | 3766 ft | 335 kts | 174° |
| 2026-05-05 04:58 | 45.84649 | -122.47290 | 3419 ft | 330 kts | 169° |
| 2026-05-05 04:58 | 45.82445 | -122.46640 | 3391 ft | 315 kts | 168° |
| 2026-05-05 04:59 | 45.80356 | -122.45988 | 3412 ft | 299 kts | 168° |
| 2026-05-05 04:59 | 45.78373 | -122.45332 | 3410 ft | 286 kts | 168° |
| 2026-05-05 04:59 | 45.76484 | -122.44688 | 3411 ft | 272 kts | 167° |
| 2026-05-05 04:59 | 45.74682 | -122.44073 | 3409 ft | 260 kts | 168° |
| 2026-05-05 05:00 | 45.72963 | -122.43482 | 3416 ft | 248 kts | 168° |
| 2026-05-05 05:00 | 45.71326 | -122.42908 | 3412 ft | 236 kts | 168° |
| 2026-05-05 05:00 | 45.69786 | -122.42370 | 3408 ft | 219 kts | 167° |
| 2026-05-05 05:00 | 45.68372 | -122.41878 | 3392 ft | 199 kts | 169° |
| 2026-05-05 05:01 | 45.67023 | -122.41495 | 3449 ft | 198 kts | 171° |
| 2026-05-05 05:01 | 45.65666 | -122.41144 | 3448 ft | 199 kts | 171° |
| 2026-05-05 05:01 | 45.64304 | -122.40804 | 3445 ft | 197 kts | 174° |
| 2026-05-05 05:01 | 45.62980 | -122.40392 | 3444 ft | 194 kts | 164° |
| 2026-05-05 05:02 | 45.61675 | -122.39863 | 3458 ft | 196 kts | 160° |
| 2026-05-05 05:02 | 45.60584 | -122.38719 | 3322 ft | 201 kts | 127° |
| 2026-05-05 05:02 | 45.59843 | -122.36978 | 3061 ft | 207 kts | 125° |
| 2026-05-05 05:02 | 45.58821 | -122.35648 | 2979 ft | 198 kts | 163° |
| 2026-05-05 05:03 | 45.57467 | -122.35528 | 3052 ft | 205 kts | 200° |
| 2026-05-05 05:03 | 45.56287 | -122.36669 | 3342 ft | 210 kts | 236° |
| 2026-05-05 05:03 | 45.55770 | -122.38512 | 3503 ft | 193 kts | 262° |
| 2026-05-05 05:03 | 45.55623 | -122.40383 | 3534 ft | 194 kts | 265° |
| 2026-05-05 05:04 | 45.55503 | -122.42342 | 3499 ft | 199 kts | 265° |
| 2026-05-05 05:04 | 45.55391 | -122.44269 | 3511 ft | 187 kts | 265° |
| 2026-05-05 05:04 | 45.55280 | -122.46150 | 3521 ft | 203 kts | 265° |
| 2026-05-05 05:04 | 45.55157 | -122.48269 | 3240 ft | 228 kts | 265° |
| 2026-05-05 05:05 | 45.55063 | -122.50629 | 2672 ft | 236 kts | 268° |
| 2026-05-05 05:05 | 45.55504 | -122.52685 | 2289 ft | 220 kts | 308° |
| 2026-05-05 05:05 | 45.56614 | -122.54416 | 1299 ft | 237 kts | 294° |
| 2026-05-05 05:05 | 45.57265 | -122.56524 | 700 ft | 232 kts | 304° |
| 2026-05-05 05:06 | 45.58003 | -122.58485 | 285 ft | 213 kts | 298° |
| 2026-05-05 05:06 | 45.58656 | -122.60065 | 1630 ft | 144 kts | 307° |
| 2026-05-05 05:06 | 45.59207 | -122.60847 | 2972 ft | 102 kts | 322° |
| 2026-05-05 05:06 | 45.59951 | -122.61661 | 2567 ft | 174 kts | 318° |
| 2026-05-05 05:07 | 45.60945 | -122.62876 | 2446 ft | 188 kts | 317° |
| 2026-05-05 05:07 | 45.61941 | -122.63998 | 2336 ft | 176 kts | 333° |
| 2026-05-05 05:07 | 45.63082 | -122.64293 | 2916 ft | 164 kts | 354° |
| 2026-05-05 05:07 | 45.64245 | -122.63951 | 2977 ft | 176 kts | 32° |
| 2026-05-05 05:08 | 45.65188 | -122.62809 | 3081 ft | 181 kts | 43° |
| 2026-05-05 05:08 | 45.65823 | -122.61311 | 3059 ft | 176 kts | 81° |
| 2026-05-05 05:08 | 45.65776 | -122.59564 | 3052 ft | 181 kts | 99° |
| 2026-05-05 05:08 | 45.65545 | -122.57810 | 3064 ft | 177 kts | 105° |
| 2026-05-05 05:09 | 45.65343 | -122.56650 | 3052 ft | 179 kts | 106° |
| 2026-05-05 05:09 | 45.64953 | -122.54849 | 3003 ft | 206 kts | 109° |
| 2026-05-05 05:09 | 45.64508 | -122.52955 | 2978 ft | 198 kts | 109° |
| 2026-05-05 05:09 | 45.64060 | -122.51066 | 3010 ft | 211 kts | 109° |
| 2026-05-05 05:10 | 45.63571 | -122.49002 | 3060 ft | 219 kts | 109° |
| 2026-05-05 05:10 | 45.63098 | -122.47016 | 3000 ft | 204 kts | 110° |
| 2026-05-05 05:10 | 45.62573 | -122.45191 | 3030 ft | 195 kts | 122° |
| 2026-05-05 05:10 | 45.61842 | -122.43482 | 3064 ft | 211 kts | 122° |
| 2026-05-05 05:11 | 45.61008 | -122.41811 | 3020 ft | 200 kts | 142° |
| 2026-05-05 05:11 | 45.59808 | -122.40937 | 3077 ft | 198 kts | 163° |
| 2026-05-05 05:11 | 45.58478 | -122.40305 | 3044 ft | 199 kts | 168° |
| 2026-05-05 05:11 | 45.57149 | -122.40101 | 3036 ft | 188 kts | 186° |
| 2026-05-05 05:12 | 45.55882 | -122.40514 | 3022 ft | 185 kts | 214° |
| 2026-05-05 05:12 | 45.54940 | -122.41708 | 3081 ft | 185 kts | 234° |
| 2026-05-05 05:12 | 45.54490 | -122.43371 | 3100 ft | 180 kts | 260° |
| 2026-05-05 05:12 | 45.54315 | -122.45138 | 2942 ft | 179 kts | 263° |
| 2026-05-05 05:13 | 45.54119 | -122.46884 | 2580 ft | 179 kts | 262° |
| 2026-05-05 05:13 | 45.54258 | -122.48540 | 2451 ft | 160 kts | 286° |
| 2026-05-05 05:13 | 45.54732 | -122.49949 | 2064 ft | 161 kts | 297° |
| 2026-05-05 05:13 | 45.55317 | -122.51279 | 1804 ft | 155 kts | 301° |
| 2026-05-05 05:14 | 45.55862 | -122.52605 | 1379 ft | 158 kts | 292° |
| 2026-05-05 05:14 | 45.56349 | -122.54040 | 968 ft | 159 kts | 296° |
| 2026-05-05 05:14 | 45.56875 | -122.55378 | 640 ft | 150 kts | 300° |
| 2026-05-05 05:14 | 45.57372 | -122.56611 | 414 ft | 136 kts | 299° |
| 2026-05-05 05:15 | 45.57836 | -122.57830 | 211 ft | 142 kts | 299° |
| 2026-05-05 05:15 | 45.58285 | -122.58994 | 35 ft | 124 kts | 300° |
| 2026-05-05 05:15 | 45.58636 | -122.59896 | 37 ft | 48 kts | 298° |
| 2026-05-05 05:15 | 45.58648 | -122.59926 | 36 ft | 7 kts | 298° |
| 2026-05-05 05:16 | 45.58659 | -122.59953 | 35 ft | 11 kts | 299° |
| 2026-05-05 05:16 | 45.58712 | -122.60074 | 34 ft | 17 kts | 316° |
| 2026-05-05 05:16 | 45.58806 | -122.60186 | 32 ft | 10 kts | 326° |
| 2026-05-05 05:16 | 45.58820 | -122.60200 | 33 ft | 0 kts | 326° |
| 2026-05-05 05:17 | 45.58821 | -122.60201 | 33 ft | 0 kts | 326° |
| 2026-05-05 05:17 | 45.58823 | -122.60203 | 33 ft | 1 kts | 326° |
| 2026-05-05 05:17 | 45.58839 | -122.60218 | 33 ft | 6 kts | 326° |
| 2026-05-05 05:18 | 45.58882 | -122.60256 | 31 ft | 9 kts | 335° |
| 2026-05-05 05:18 | 45.58934 | -122.60228 | 31 ft | 9 kts | 47° |
| 2026-05-05 05:18 | 45.58940 | -122.60131 | 31 ft | 12 kts | 115° |
| 2026-05-05 05:18 | 45.58907 | -122.60026 | 33 ft | 0 kts | 90° |
| 2026-05-05 05:19 | 45.58921 | -122.60003 | 32 ft | 5 kts | 25° |
| 2026-05-05 05:19 | 45.58963 | -122.59944 | 32 ft | 0 kts | 54° |